Latest Weather Observations for Sellicks Hill

IDS60901

Issued at 12:31 am CST Sunday 20 August 2017 (issued every 10 minutes, with the page automatically refreshed every 10 minutes)

About weather observations | Map of Adelaide area stations | Latest observations for Adelaide area | Other Formats
Station Details ID: 023886 Name: MOUNT TERRIBLE RADAR Lat: -35.33 Lon: 138.50 Height: 385.7 m
Data from the previous 72 hours. | See also: Recent months for locations in South Australia
Date/Time
CST
Temp
°C
App
Temp
°C
Dew
Point
°C
Rel
Hum
%
Delta-T
°C
Wind Press
QNH
hPa
Press
MSL
hPa
Rain since
9am
mm
Dir  Spd
km/h
Gust
km/h
Spd
kts
Gust
kts
20/12:30am - - - - - ENE 19 24 10 13 - - -
20/12:00am - - - - - E 17 24 9 13 - - -
 
Date/Time
CST
Temp
°C
App
Temp
°C
Dew
Point
°C
Rel
Hum
%
Delta-T
°C
Wind Press
QNH
hPa
Press
MSL
hPa
Rain since
9am
mm
Dir  Spd
km/h
Gust
km/h
Spd
kts
Gust
kts
19/11:30pm - - - - - E 17 24 9 13 - - -
19/11:00pm - - - - - E 19 26 10 14 - - -
19/10:30pm - - - - - E 19 26 10 14 - - -
19/10:00pm - - - - - E 19 24 10 13 - - -
19/09:30pm - - - - - E 19 24 10 13 - - -
19/09:00pm - - - - - ESE 15 24 8 13 - - -
19/08:30pm - - - - - ESE 13 19 7 10 - - -
19/08:00pm - - - - - ESE 13 19 7 10 - - -
19/07:30pm - - - - - SE 15 19 8 10 - - -
19/07:00pm - - - - - SE 13 15 7 8 - - -
19/06:30pm - - - - - SE 11 13 6 7 - - -
19/06:00pm - - - - - SE 11 13 6 7 - - -
19/05:30pm - - - - - SE 11 13 6 7 - - -
19/05:00pm - - - - - SE 7 11 4 6 - - -
19/04:30pm - - - - - ESE 6 9 3 5 - - -
19/04:00pm - - - - - CALM 0 2 0 1 - - -
19/03:30pm - - - - - SE 7 13 4 7 - - -
19/03:00pm - - - - - ENE 2 4 1 2 - - -
19/02:30pm - - - - - S 4 11 2 6 - - -
19/02:00pm - - - - - SE 11 17 6 9 - - -
19/01:30pm - - - - - SE 11 17 6 9 - - -
19/01:00pm - - - - - SE 11 17 6 9 - - -
19/12:30pm - - - - - SE 6 24 3 13 - - -
19/12:00pm - - - - - SSE 6 7 3 4 - - -
19/11:30am - - - - - S 4 7 2 4 - - -
19/11:00am - - - - - S 9 20 5 11 - - -
19/10:30am - - - - - S 9 13 5 7 - - -
19/10:00am - - - - - SSW 6 13 3 7 - - -
19/09:30am - - - - - SW 6 13 3 7 - - -
19/09:00am - - - - - SSW 6 11 3 6 - - -
19/08:30am - - - - - SSW 4 7 2 4 - - -
19/08:00am - - - - - SW 9 17 5 9 - - -
19/07:30am - - - - - SSW 7 11 4 6 - - -
19/07:00am - - - - - SW 7 11 4 6 - - -
19/06:30am - - - - - SW 9 15 5 8 - - -
19/06:00am - - - - - SW 11 17 6 9 - - -
19/05:30am - - - - - SW 9 19 5 10 - - -
19/05:00am - - - - - SW 9 17 5 9 - - -
19/04:30am - - - - - SW 7 13 4 7 - - -
19/04:00am - - - - - SW 7 13 4 7 - - -
19/03:30am - - - - - SW 7 11 4 6 - - -
19/03:00am - - - - - SW 9 13 5 7 - - -
19/02:30am - - - - - SW 9 13 5 7 - - -
19/02:00am - - - - - SW 9 13 5 7 - - -
19/01:30am - - - - - SW 9 13 5 7 - - -
19/01:00am - - - - - SSW 7 15 4 8 - - -
19/12:30am - - - - - SSW 9 17 5 9 - - -
19/12:00am - - - - - SW 9 19 5 10 - - -
 
Date/Time
CST
Temp
°C
App
Temp
°C
Dew
Point
°C
Rel
Hum
%
Delta-T
°C
Wind Press
QNH
hPa
Press
MSL
hPa
Rain since
9am
mm
Dir  Spd
km/h
Gust
km/h
Spd
kts
Gust
kts
18/11:30pm - - - - - SW 9 13 5 7 - - -
18/11:00pm - - - - - SW 9 22 5 12 - - -
18/10:30pm - - - - - SW 9 22 5 12 - - -
18/10:00pm - - - - - SW 11 20 6 11 - - -
18/09:30pm - - - - - SW 11 19 6 10 - - -
18/09:00pm - - - - - SW 11 20 6 11 - - -
18/08:30pm - - - - - WSW 9 22 5 12 - - -
18/08:00pm - - - - - W 9 17 5 9 - - -
18/07:30pm - - - - - WSW 11 24 6 13 - - -
18/07:00pm - - - - - SW 9 20 5 11 - - -
18/06:30pm - - - - - SW 13 28 7 15 - - -
18/06:00pm - - - - - SW 11 24 6 13 - - -
18/05:30pm - - - - - WSW 9 22 5 12 - - -
18/05:00pm - - - - - WSW 9 20 5 11 - - -
18/04:30pm - - - - - WSW 9 24 5 13 - - -
18/04:00pm - - - - - W 9 20 5 11 - - -
18/03:30pm - - - - - WSW 11 26 6 14 - - -
18/03:00pm - - - - - W 9 22 5 12 - - -
18/02:30pm - - - - - WSW 11 24 6 13 - - -
18/02:00pm - - - - - W 13 30 7 16 - - -
18/01:30pm - - - - - W 11 30 6 16 - - -
18/01:00pm - - - - - W 11 24 6 13 - - -
18/12:30pm - - - - - W 9 26 5 14 - - -
18/12:00pm - - - - - WSW 13 28 7 15 - - -
18/11:30am - - - - - WNW 13 26 7 14 - - -
18/11:00am - - - - - W 13 39 7 21 - - -
18/10:30am - - - - - W 11 26 6 14 - - -
18/10:00am - - - - - WNW 11 26 6 14 - - -
18/09:30am - - - - - W 11 33 6 18 - - -
18/09:00am - - - - - W 15 32 8 17 - - -
18/08:30am - - - - - W 11 26 6 14 - - -
18/08:00am - - - - - W 11 30 6 16 - - -
18/07:30am - - - - - W 13 30 7 16 - - -
18/07:00am - - - - - W 11 28 6 15 - - -
18/06:30am - - - - - WSW 11 26 6 14 - - -
18/06:00am - - - - - W 15 32 8 17 - - -
18/05:30am - - - - - W 13 39 7 21 - - -
18/05:00am - - - - - W 15 33 8 18 - - -
18/04:30am - - - - - W 15 35 8 19 - - -
18/04:00am - - - - - W 13 33 7 18 - - -
18/03:30am - - - - - WNW 15 44 8 24 - - -
18/03:00am - - - - - W 15 33 8 18 - - -
18/02:30am - - - - - W 17 33 9 18 - - -
18/02:00am - - - - - W 15 33 8 18 - - -
18/01:30am - - - - - W 15 32 8 17 - - -
18/01:00am - - - - - W 15 33 8 18 - - -
18/12:30am - - - - - W 13 35 7 19 - - -
18/12:00am - - - - - W 17 33 9 18 - - -
 
Date/Time
CST
Temp
°C
App
Temp
°C
Dew
Point
°C
Rel
Hum
%
Delta-T
°C
Wind Press
QNH
hPa
Press
MSL
hPa
Rain since
9am
mm
Dir  Spd
km/h
Gust
km/h
Spd
kts
Gust
kts
17/11:30pm - - - - - W 17 35 9 19 - - -
17/11:00pm - - - - - W 17 33 9 18 - - -
17/10:30pm - - - - - W 20 39 11 21 - - -
17/10:00pm - - - - - W 19 43 10 23 - - -
17/09:30pm - - - - - WNW 28 48 15 26 - - -
17/09:00pm - - - - - WNW 22 41 12 22 - - -
17/08:30pm - - - - - WNW 22 39 12 21 - - -
17/08:07pm - - - - - WNW 28 57 15 31 - - -
17/08:00pm - - - - - WNW 24 48 13 26 - - -
17/07:30pm - - - - - WNW 20 44 11 24 - - -
17/07:00pm - - - - - WNW 19 39 10 21 - - -
17/06:30pm - - - - - WNW 19 44 10 24 - - -
17/06:00pm - - - - - WNW 26 43 14 23 - - -
17/05:30pm - - - - - WNW 28 52 15 28 - - -
17/05:08pm - - - - - WNW 28 52 15 28 - - -
17/05:00pm - - - - - WNW 24 46 13 25 - - -
17/04:30pm - - - - - NW 19 35 10 19 - - -
17/04:00pm - - - - - NW 20 46 11 25 - - -
17/03:30pm - - - - - WNW 24 44 13 24 - - -
17/03:17pm - - - - - WNW 28 52 15 28 - - -
17/03:00pm - - - - - WNW 26 59 14 32 - - -
17/02:52pm - - - - - WNW 28 59 15 32 - - -
17/02:30pm - - - - - WNW 22 41 12 22 - - -
17/02:00pm - - - - - WNW 17 33 9 18 - - -
17/01:30pm - - - - - WNW 24 56 13 30 - - -
17/01:19pm - - - - - WNW 22 59 12 32 - - -
17/01:00pm - - - - - NW 19 39 10 21 - - -
17/12:30pm - - - - - NW 20 44 11 24 - - -
17/12:00pm - - - - - NW 22 50 12 27 - - -
17/11:30am - - - - - NW 20 35 11 19 - - -
17/11:00am - - - - - NW 20 48 11 26 - - -
17/10:30am - - - - - NW 20 39 11 21 - - -
17/10:00am - - - - - NW 19 39 10 21 - - -
17/09:30am - - - - - NW 19 39 10 21 - - -
17/09:00am - - - - - NW 22 43 12 23 - - -
17/08:30am - - - - - NW 15 35 8 19 - - -
17/08:00am - - - - - NW 13 30 7 16 - - -
17/07:30am - - - - - NW 15 32 8 17 - - -
17/07:00am - - - - - NW 15 35 8 19 - - -
17/06:30am - - - - - NW 11 26 6 14 - - -
17/06:00am - - - - - NW 15 30 8 16 - - -
17/05:30am - - - - - NW 15 26 8 14 - - -
17/05:00am - - - - - NW 13 30 7 16 - - -
17/04:30am - - - - - WNW 15 35 8 19 - - -
17/04:00am - - - - - NW 20 44 11 24 - - -
17/03:30am - - - - - NW 19 33 10 18 - - -
17/03:00am - - - - - NW 19 35 10 19 - - -
17/02:30am - - - - - NW 20 43 11 23 - - -
17/02:00am - - - - - NW 20 43 11 23 - - -
17/01:30am - - - - - NW 26 44 14 24 - - -
17/01:00am - - - - - NW 22 37 12 20 - - -

Latest Capital City Observations: Canberra | Sydney | Melbourne | Brisbane | Adelaide | Perth | Hobart | Darwin

Other Formats:

Comma delimited format used in spreadsheet applications
http://www.bom.gov.au/fwo/IDS60901/IDS60901.95679.axf

JavaScript Object Notation format (JSON) in row-major order
http://www.bom.gov.au/fwo/IDS60901/IDS60901.95679.json